sensor_id;sensor_type;location;lat;lon;timestamp;temperature;humidity
3086;DHT22;52812;48.960;9.108;2022-10-22T00:00:14;13.30;99.90
3086;DHT22;52812;48.960;9.108;2022-10-22T00:02:40;13.30;99.90
3086;DHT22;52812;48.960;9.108;2022-10-22T00:05:06;13.30;99.90
3086;DHT22;52812;48.960;9.108;2022-10-22T00:07:32;13.30;99.90
3086;DHT22;52812;48.960;9.108;2022-10-22T00:09:57;13.20;99.90
3086;DHT22;52812;48.960;9.108;2022-10-22T00:12:23;13.20;99.90
3086;DHT22;52812;48.960;9.108;2022-10-22T00:14:49;13.20;99.90
3086;DHT22;52812;48.960;9.108;2022-10-22T00:17:15;13.20;99.90
3086;DHT22;52812;48.960;9.108;2022-10-22T00:19:41;13.20;99.90
3086;DHT22;52812;48.960;9.108;2022-10-22T00:22:07;13.20;99.90
3086;DHT22;52812;48.960;9.108;2022-10-22T00:24:35;13.20;99.90
3086;DHT22;52812;48.960;9.108;2022-10-22T00:27:01;13.20;99.90
3086;DHT22;52812;48.960;9.108;2022-10-22T00:29:27;13.20;99.90
3086;DHT22;52812;48.960;9.108;2022-10-22T00:31:53;13.20;99.90
3086;DHT22;52812;48.960;9.108;2022-10-22T00:34:20;13.10;99.90
3086;DHT22;52812;48.960;9.108;2022-10-22T00:36:47;13.20;99.90
3086;DHT22;52812;48.960;9.108;2022-10-22T00:39:14;13.20;99.90
3086;DHT22;52812;48.960;9.108;2022-10-22T00:41:41;13.20;99.90
3086;DHT22;52812;48.960;9.108;2022-10-22T00:44:57;13.20;99.90
3086;DHT22;52812;48.960;9.108;2022-10-22T00:46:53;13.20;99.90
3086;DHT22;52812;48.960;9.108;2022-10-22T00:49:18;13.20;99.90
3086;DHT22;52812;48.960;9.108;2022-10-22T00:51:44;13.20;99.90
3086;DHT22;52812;48.960;9.108;2022-10-22T00:54:09;13.20;99.90
3086;DHT22;52812;48.960;9.108;2022-10-22T00:56:35;13.20;99.90
3086;DHT22;52812;48.960;9.108;2022-10-22T00:59:02;13.20;99.90
3086;DHT22;52812;48.960;9.108;2022-10-22T01:01:30;13.10;99.90
3086;DHT22;52812;48.960;9.108;2022-10-22T01:03:56;13.10;99.90
3086;DHT22;52812;48.960;9.108;2022-10-22T01:06:27;13.00;99.90
3086;DHT22;52812;48.960;9.108;2022-10-22T01:12:07;13.10;99.90
3086;DHT22;52812;48.960;9.108;2022-10-22T01:14:41;13.00;99.90
3086;DHT22;52812;48.960;9.108;2022-10-22T01:17:20;13.00;99.90
3086;DHT22;52812;48.960;9.108;2022-10-22T01:28:10;13.20;99.90
3086;DHT22;52812;48.960;9.108;2022-10-22T01:30:40;13.20;99.90
3086;DHT22;52812;48.960;9.108;2022-10-22T01:33:09;13.20;99.90
3086;DHT22;52812;48.960;9.108;2022-10-22T01:35:40;13.20;99.90
3086;DHT22;52812;48.960;9.108;2022-10-22T01:38:11;13.10;99.90
3086;DHT22;52812;48.960;9.108;2022-10-22T01:40:38;13.10;99.90
3086;DHT22;52812;48.960;9.108;2022-10-22T01:43:06;13.10;99.90
3086;DHT22;52812;48.960;9.108;2022-10-22T01:48:14;13.10;99.90
3086;DHT22;52812;48.960;9.108;2022-10-22T01:56:19;13.10;99.90
3086;DHT22;52812;48.960;9.108;2022-10-22T01:59:16;13.10;99.90
3086;DHT22;52812;48.960;9.108;2022-10-22T02:04:45;13.10;99.90
3086;DHT22;52812;48.960;9.108;2022-10-22T02:07:15;13.10;99.90
3086;DHT22;52812;48.960;9.108;2022-10-22T02:09:42;13.20;99.90
3086;DHT22;52812;48.960;9.108;2022-10-22T02:12:09;13.20;99.90
3086;DHT22;52812;48.960;9.108;2022-10-22T02:14:38;13.20;99.90
3086;DHT22;52812;48.960;9.108;2022-10-22T02:17:08;13.20;99.90
3086;DHT22;52812;48.960;9.108;2022-10-22T02:19:56;13.10;99.90
3086;DHT22;52812;48.960;9.108;2022-10-22T02:22:24;13.10;99.90
3086;DHT22;52812;48.960;9.108;2022-10-22T02:24:50;13.00;99.90
3086;DHT22;52812;48.960;9.108;2022-10-22T02:27:31;13.00;99.90
3086;DHT22;52812;48.960;9.108;2022-10-22T02:30:06;12.90;99.90
3086;DHT22;52812;48.960;9.108;2022-10-22T02:32:46;12.90;99.90
3086;DHT22;52812;48.960;9.108;2022-10-22T02:35:17;12.90;99.90
3086;DHT22;52812;48.960;9.108;2022-10-22T02:37:44;13.00;99.90
3086;DHT22;52812;48.960;9.108;2022-10-22T02:40:10;12.90;99.90
3086;DHT22;52812;48.960;9.108;2022-10-22T02:42:38;12.90;99.90
3086;DHT22;52812;48.960;9.108;2022-10-22T02:45:05;12.80;99.90
3086;DHT22;52812;48.960;9.108;2022-10-22T02:47:31;12.80;99.90
3086;DHT22;52812;48.960;9.108;2022-10-22T02:49:56;12.80;99.90
3086;DHT22;52812;48.960;9.108;2022-10-22T02:52:22;12.70;99.90
3086;DHT22;52812;48.960;9.108;2022-10-22T02:54:47;12.70;99.90
3086;DHT22;52812;48.960;9.108;2022-10-22T02:57:13;12.70;99.90
3086;DHT22;52812;48.960;9.108;2022-10-22T02:59:38;12.70;99.90
3086;DHT22;52812;48.960;9.108;2022-10-22T03:02:04;12.80;99.90
3086;DHT22;52812;48.960;9.108;2022-10-22T03:04:30;12.80;99.90
3086;DHT22;52812;48.960;9.108;2022-10-22T03:06:55;12.80;99.90
3086;DHT22;52812;48.960;9.108;2022-10-22T03:09:21;12.80;99.90
3086;DHT22;52812;48.960;9.108;2022-10-22T03:11:47;12.70;99.90
3086;DHT22;52812;48.960;9.108;2022-10-22T03:14:12;12.70;99.90
3086;DHT22;52812;48.960;9.108;2022-10-22T03:16:38;12.60;99.90
3086;DHT22;52812;48.960;9.108;2022-10-22T03:19:03;12.60;99.90
3086;DHT22;52812;48.960;9.108;2022-10-22T03:21:43;12.60;99.90
3086;DHT22;52812;48.960;9.108;2022-10-22T03:24:12;12.60;99.90
3086;DHT22;52812;48.960;9.108;2022-10-22T03:26:40;12.60;99.90
3086;DHT22;52812;48.960;9.108;2022-10-22T03:29:09;12.60;99.90
3086;DHT22;52812;48.960;9.108;2022-10-22T03:31:35;12.70;99.90
3086;DHT22;52812;48.960;9.108;2022-10-22T03:34:01;12.80;99.90
3086;DHT22;52812;48.960;9.108;2022-10-22T03:36:26;12.80;99.90
3086;DHT22;52812;48.960;9.108;2022-10-22T03:38:52;12.90;99.90
3086;DHT22;52812;48.960;9.108;2022-10-22T03:41:18;12.90;99.90
3086;DHT22;52812;48.960;9.108;2022-10-22T03:43:43;12.90;99.90
3086;DHT22;52812;48.960;9.108;2022-10-22T03:46:14;12.90;99.90
3086;DHT22;52812;48.960;9.108;2022-10-22T03:48:39;12.80;99.90
3086;DHT22;52812;48.960;9.108;2022-10-22T03:51:05;12.70;99.90
3086;DHT22;52812;48.960;9.108;2022-10-22T03:53:31;12.60;99.90
3086;DHT22;52812;48.960;9.108;2022-10-22T03:55:56;12.60;99.90
3086;DHT22;52812;48.960;9.108;2022-10-22T03:58:22;12.70;99.90
3086;DHT22;52812;48.960;9.108;2022-10-22T04:00:47;12.70;99.90
3086;DHT22;52812;48.960;9.108;2022-10-22T04:03:13;12.80;99.90
3086;DHT22;52812;48.960;9.108;2022-10-22T04:05:38;12.80;99.90
3086;DHT22;52812;48.960;9.108;2022-10-22T04:08:04;12.70;99.90
3086;DHT22;52812;48.960;9.108;2022-10-22T04:10:29;12.70;99.90
3086;DHT22;52812;48.960;9.108;2022-10-22T04:12:55;12.70;99.90
3086;DHT22;52812;48.960;9.108;2022-10-22T04:15:20;12.70;99.90
3086;DHT22;52812;48.960;9.108;2022-10-22T04:17:46;12.70;99.90
3086;DHT22;52812;48.960;9.108;2022-10-22T04:20:11;12.60;99.90
3086;DHT22;52812;48.960;9.108;2022-10-22T04:22:37;12.60;99.90
3086;DHT22;52812;48.960;9.108;2022-10-22T04:25:03;12.50;99.90
3086;DHT22;52812;48.960;9.108;2022-10-22T04:27:34;12.50;99.90
3086;DHT22;52812;48.960;9.108;2022-10-22T04:30:00;12.50;99.90
3086;DHT22;52812;48.960;9.108;2022-10-22T04:32:27;12.40;99.90
3086;DHT22;52812;48.960;9.108;2022-10-22T04:34:52;12.40;99.90
3086;DHT22;52812;48.960;9.108;2022-10-22T04:37:18;12.30;99.90
3086;DHT22;52812;48.960;9.108;2022-10-22T04:39:44;12.30;99.90
3086;DHT22;52812;48.960;9.108;2022-10-22T04:42:10;12.30;99.90
3086;DHT22;52812;48.960;9.108;2022-10-22T04:44:35;12.30;99.90
3086;DHT22;52812;48.960;9.108;2022-10-22T04:47:01;12.30;99.90
3086;DHT22;52812;48.960;9.108;2022-10-22T04:49:26;12.30;99.90
3086;DHT22;52812;48.960;9.108;2022-10-22T04:51:52;12.30;99.90
3086;DHT22;52812;48.960;9.108;2022-10-22T04:54:18;12.30;99.90
3086;DHT22;52812;48.960;9.108;2022-10-22T04:56:43;12.30;99.90
3086;DHT22;52812;48.960;9.108;2022-10-22T04:59:10;12.20;99.90
3086;DHT22;52812;48.960;9.108;2022-10-22T05:01:39;12.20;99.90
3086;DHT22;52812;48.960;9.108;2022-10-22T05:04:06;12.10;99.90
3086;DHT22;52812;48.960;9.108;2022-10-22T05:06:33;12.10;99.90
3086;DHT22;52812;48.960;9.108;2022-10-22T05:09:02;12.10;99.90
3086;DHT22;52812;48.960;9.108;2022-10-22T05:11:31;12.00;99.90
3086;DHT22;52812;48.960;9.108;2022-10-22T05:13:59;12.00;99.90
3086;DHT22;52812;48.960;9.108;2022-10-22T05:16:26;12.00;99.90
3086;DHT22;52812;48.960;9.108;2022-10-22T05:18:52;11.90;99.90
3086;DHT22;52812;48.960;9.108;2022-10-22T05:21:19;11.90;99.90
3086;DHT22;52812;48.960;9.108;2022-10-22T05:23:47;11.80;99.90
3086;DHT22;52812;48.960;9.108;2022-10-22T05:26:15;11.90;99.90
3086;DHT22;52812;48.960;9.108;2022-10-22T05:28:42;11.90;99.90
3086;DHT22;52812;48.960;9.108;2022-10-22T05:31:10;11.90;99.90
3086;DHT22;52812;48.960;9.108;2022-10-22T05:33:36;11.90;99.90
3086;DHT22;52812;48.960;9.108;2022-10-22T05:36:03;11.90;99.90
3086;DHT22;52812;48.960;9.108;2022-10-22T05:38:30;11.80;99.90
3086;DHT22;52812;48.960;9.108;2022-10-22T05:41:07;11.80;99.90
3086;DHT22;52812;48.960;9.108;2022-10-22T05:43:34;11.90;99.90
3086;DHT22;52812;48.960;9.108;2022-10-22T05:46:13;11.90;99.90
3086;DHT22;52812;48.960;9.108;2022-10-22T05:48:39;11.90;99.90
3086;DHT22;52812;48.960;9.108;2022-10-22T05:51:07;11.80;99.90
3086;DHT22;52812;48.960;9.108;2022-10-22T05:53:36;11.80;99.90
3086;DHT22;52812;48.960;9.108;2022-10-22T05:56:07;11.80;99.90
3086;DHT22;52812;48.960;9.108;2022-10-22T05:58:33;11.70;99.90
3086;DHT22;52812;48.960;9.108;2022-10-22T06:01:08;11.70;99.90
3086;DHT22;52812;48.960;9.108;2022-10-22T06:03:35;11.70;99.90
3086;DHT22;52812;48.960;9.108;2022-10-22T06:06:04;11.70;99.90
3086;DHT22;52812;48.960;9.108;2022-10-22T06:08:30;11.70;99.90
3086;DHT22;52812;48.960;9.108;2022-10-22T06:10:56;11.70;99.90
3086;DHT22;52812;48.960;9.108;2022-10-22T06:13:21;11.70;99.90
3086;DHT22;52812;48.960;9.108;2022-10-22T06:15:48;11.70;99.90
3086;DHT22;52812;48.960;9.108;2022-10-22T06:18:13;11.70;99.90
3086;DHT22;52812;48.960;9.108;2022-10-22T06:20:39;11.80;99.90
3086;DHT22;52812;48.960;9.108;2022-10-22T06:23:04;11.90;99.90
3086;DHT22;52812;48.960;9.108;2022-10-22T06:25:30;12.00;99.90
3086;DHT22;52812;48.960;9.108;2022-10-22T06:27:55;12.00;99.90
3086;DHT22;52812;48.960;9.108;2022-10-22T06:30:21;12.00;99.90
3086;DHT22;52812;48.960;9.108;2022-10-22T06:32:46;12.00;99.90
3086;DHT22;52812;48.960;9.108;2022-10-22T06:35:12;12.10;99.90
3086;DHT22;52812;48.960;9.108;2022-10-22T06:37:38;12.10;99.90
3086;DHT22;52812;48.960;9.108;2022-10-22T06:40:03;12.20;99.90
3086;DHT22;52812;48.960;9.108;2022-10-22T06:42:29;12.20;99.90
3086;DHT22;52812;48.960;9.108;2022-10-22T06:44:54;12.20;99.90
3086;DHT22;52812;48.960;9.108;2022-10-22T06:47:20;12.20;99.90
3086;DHT22;52812;48.960;9.108;2022-10-22T06:49:47;12.20;99.90
3086;DHT22;52812;48.960;9.108;2022-10-22T06:52:13;12.30;99.90
3086;DHT22;52812;48.960;9.108;2022-10-22T06:54:38;12.30;99.90
3086;DHT22;52812;48.960;9.108;2022-10-22T06:57:05;12.40;99.90
3086;DHT22;52812;48.960;9.108;2022-10-22T06:59:30;12.50;99.90
3086;DHT22;52812;48.960;9.108;2022-10-22T07:01:56;12.50;99.90
3086;DHT22;52812;48.960;9.108;2022-10-22T07:04:21;12.60;99.90
3086;DHT22;52812;48.960;9.108;2022-10-22T07:06:47;12.70;99.90
3086;DHT22;52812;48.960;9.108;2022-10-22T07:09:12;12.80;99.90
3086;DHT22;52812;48.960;9.108;2022-10-22T07:11:40;12.90;99.90
3086;DHT22;52812;48.960;9.108;2022-10-22T07:14:07;13.00;99.90
3086;DHT22;52812;48.960;9.108;2022-10-22T07:16:32;13.00;99.90
3086;DHT22;52812;48.960;9.108;2022-10-22T07:18:59;13.10;99.90
3086;DHT22;52812;48.960;9.108;2022-10-22T07:21:25;13.10;99.90
3086;DHT22;52812;48.960;9.108;2022-10-22T07:23:50;13.30;99.90
3086;DHT22;52812;48.960;9.108;2022-10-22T07:26:17;13.30;99.90
3086;DHT22;52812;48.960;9.108;2022-10-22T07:28:45;13.40;99.90
3086;DHT22;52812;48.960;9.108;2022-10-22T07:31:12;13.50;99.90
3086;DHT22;52812;48.960;9.108;2022-10-22T07:33:38;13.70;99.90
3086;DHT22;52812;48.960;9.108;2022-10-22T07:36:06;13.80;99.90
3086;DHT22;52812;48.960;9.108;2022-10-22T07:38:33;14.00;99.90
3086;DHT22;52812;48.960;9.108;2022-10-22T07:40:59;14.00;99.90
3086;DHT22;52812;48.960;9.108;2022-10-22T07:43:25;14.00;99.90
3086;DHT22;52812;48.960;9.108;2022-10-22T07:45:50;14.10;99.90
3086;DHT22;52812;48.960;9.108;2022-10-22T07:48:16;14.10;99.90
3086;DHT22;52812;48.960;9.108;2022-10-22T07:50:42;14.10;99.90
3086;DHT22;52812;48.960;9.108;2022-10-22T07:53:08;14.20;99.90
3086;DHT22;52812;48.960;9.108;2022-10-22T07:55:33;14.30;99.90
3086;DHT22;52812;48.960;9.108;2022-10-22T07:57:59;14.60;99.90
3086;DHT22;52812;48.960;9.108;2022-10-22T08:00:25;14.80;99.90
3086;DHT22;52812;48.960;9.108;2022-10-22T08:02:51;14.90;99.90
3086;DHT22;52812;48.960;9.108;2022-10-22T08:05:17;15.10;99.90
3086;DHT22;52812;48.960;9.108;2022-10-22T08:07:43;15.20;99.90
3086;DHT22;52812;48.960;9.108;2022-10-22T08:10:09;15.20;99.90
3086;DHT22;52812;48.960;9.108;2022-10-22T08:12:35;15.20;99.90
3086;DHT22;52812;48.960;9.108;2022-10-22T08:15:01;15.30;99.90
3086;DHT22;52812;48.960;9.108;2022-10-22T08:17:27;15.10;99.90
3086;DHT22;52812;48.960;9.108;2022-10-22T08:19:53;15.00;99.90
3086;DHT22;52812;48.960;9.108;2022-10-22T08:22:18;14.90;99.90
3086;DHT22;52812;48.960;9.108;2022-10-22T08:24:44;14.80;99.90
3086;DHT22;52812;48.960;9.108;2022-10-22T08:27:10;14.80;99.90
3086;DHT22;52812;48.960;9.108;2022-10-22T08:29:35;14.90;99.90
3086;DHT22;52812;48.960;9.108;2022-10-22T08:32:01;15.10;99.90
3086;DHT22;52812;48.960;9.108;2022-10-22T08:34:28;15.20;99.90
3086;DHT22;52812;48.960;9.108;2022-10-22T08:36:53;15.40;99.90
3086;DHT22;52812;48.960;9.108;2022-10-22T08:39:19;15.60;99.90
3086;DHT22;52812;48.960;9.108;2022-10-22T08:41:56;15.60;99.90
3086;DHT22;52812;48.960;9.108;2022-10-22T08:45:11;15.70;99.90
3086;DHT22;52812;48.960;9.108;2022-10-22T08:50:40;16.00;99.90
3086;DHT22;52812;48.960;9.108;2022-10-22T08:53:12;16.10;99.90
3086;DHT22;52812;48.960;9.108;2022-10-22T08:55:39;16.20;99.90
3086;DHT22;52812;48.960;9.108;2022-10-22T08:58:21;16.30;99.90
3086;DHT22;52812;48.960;9.108;2022-10-22T09:01:20;16.30;99.90
3086;DHT22;52812;48.960;9.108;2022-10-22T09:03:58;16.50;99.90
3086;DHT22;52812;48.960;9.108;2022-10-22T09:06:29;16.70;99.90
3086;DHT22;52812;48.960;9.108;2022-10-22T09:08:57;16.70;99.90
3086;DHT22;52812;48.960;9.108;2022-10-22T09:11:34;16.80;99.90
3086;DHT22;52812;48.960;9.108;2022-10-22T09:14:00;16.90;99.90
3086;DHT22;52812;48.960;9.108;2022-10-22T09:19:32;17.10;99.90
3086;DHT22;52812;48.960;9.108;2022-10-22T09:22:26;17.20;99.90
3086;DHT22;52812;48.960;9.108;2022-10-22T09:25:09;17.30;99.90
3086;DHT22;52812;48.960;9.108;2022-10-22T09:27:36;17.40;99.90
3086;DHT22;52812;48.960;9.108;2022-10-22T09:30:03;17.40;99.90
3086;DHT22;52812;48.960;9.108;2022-10-22T09:32:28;17.40;99.90
3086;DHT22;52812;48.960;9.108;2022-10-22T09:34:56;17.50;99.90
3086;DHT22;52812;48.960;9.108;2022-10-22T09:37:26;17.60;99.90
3086;DHT22;52812;48.960;9.108;2022-10-22T09:39:54;17.80;99.90
3086;DHT22;52812;48.960;9.108;2022-10-22T09:42:20;18.00;99.90
3086;DHT22;52812;48.960;9.108;2022-10-22T09:44:57;18.00;99.90
3086;DHT22;52812;48.960;9.108;2022-10-22T09:47:41;18.00;99.90
3086;DHT22;52812;48.960;9.108;2022-10-22T09:50:21;18.00;99.90
3086;DHT22;52812;48.960;9.108;2022-10-22T09:55:25;18.20;99.90
3086;DHT22;52812;48.960;9.108;2022-10-22T09:57:55;18.30;99.90
3086;DHT22;52812;48.960;9.108;2022-10-22T10:00:21;18.30;99.90
3086;DHT22;52812;48.960;9.108;2022-10-22T10:02:56;18.10;99.90
3086;DHT22;52812;48.960;9.108;2022-10-22T10:05:29;18.20;99.90
3086;DHT22;52812;48.960;9.108;2022-10-22T10:07:55;18.30;99.90
3086;DHT22;52812;48.960;9.108;2022-10-22T10:21:02;18.40;99.90
3086;DHT22;52812;48.960;9.108;2022-10-22T10:26:24;18.40;99.90
3086;DHT22;52812;48.960;9.108;2022-10-22T10:28:54;18.50;99.90
3086;DHT22;52812;48.960;9.108;2022-10-22T10:31:51;18.40;99.90
3086;DHT22;52812;48.960;9.108;2022-10-22T10:34:28;18.40;99.90
3086;DHT22;52812;48.960;9.108;2022-10-22T10:40:14;18.60;99.90
3086;DHT22;52812;48.960;9.108;2022-10-22T10:48:27;18.40;99.90
3086;DHT22;52812;48.960;9.108;2022-10-22T10:51:04;18.20;99.90
3086;DHT22;52812;48.960;9.108;2022-10-22T10:56:44;18.40;99.90
3086;DHT22;52812;48.960;9.108;2022-10-22T10:59:57;18.50;99.90
3086;DHT22;52812;48.960;9.108;2022-10-22T11:05:42;18.50;99.90
3086;DHT22;52812;48.960;9.108;2022-10-22T11:08:31;18.40;99.90
3086;DHT22;52812;48.960;9.108;2022-10-22T11:11:08;18.60;99.90
3086;DHT22;52812;48.960;9.108;2022-10-22T11:13:47;18.70;99.90
3086;DHT22;52812;48.960;9.108;2022-10-22T11:16:16;18.80;99.90
3086;DHT22;52812;48.960;9.108;2022-10-22T11:21:23;19.00;99.90
3086;DHT22;52812;48.960;9.108;2022-10-22T11:26:42;18.90;99.90
3086;DHT22;52812;48.960;9.108;2022-10-22T11:29:16;18.90;99.90
3086;DHT22;52812;48.960;9.108;2022-10-22T11:31:44;18.90;99.90
3086;DHT22;52812;48.960;9.108;2022-10-22T11:34:19;18.80;99.90
3086;DHT22;52812;48.960;9.108;2022-10-22T11:36:47;18.90;99.90
3086;DHT22;52812;48.960;9.108;2022-10-22T11:42:10;18.90;99.90
3086;DHT22;52812;48.960;9.108;2022-10-22T11:45:05;18.90;99.90
3086;DHT22;52812;48.960;9.108;2022-10-22T11:47:37;18.70;99.90
3086;DHT22;52812;48.960;9.108;2022-10-22T11:50:25;18.70;99.90
3086;DHT22;52812;48.960;9.108;2022-10-22T11:53:05;18.70;99.90
3086;DHT22;52812;48.960;9.108;2022-10-22T11:55:44;18.70;99.90
3086;DHT22;52812;48.960;9.108;2022-10-22T12:03:41;18.80;99.90
3086;DHT22;52812;48.960;9.108;2022-10-22T12:08:50;18.80;99.90
3086;DHT22;52812;48.960;9.108;2022-10-22T12:14:22;18.60;99.90
3086;DHT22;52812;48.960;9.108;2022-10-22T12:16:57;18.70;99.90
3086;DHT22;52812;48.960;9.108;2022-10-22T12:19:34;18.70;99.90
3086;DHT22;52812;48.960;9.108;2022-10-22T12:22:17;18.70;99.90
3086;DHT22;52812;48.960;9.108;2022-10-22T12:24:46;18.70;99.90
3086;DHT22;52812;48.960;9.108;2022-10-22T12:29:44;18.80;99.90
3086;DHT22;52812;48.960;9.108;2022-10-22T12:32:13;18.70;99.90
3086;DHT22;52812;48.960;9.108;2022-10-22T12:34:46;18.80;99.90
3086;DHT22;52812;48.960;9.108;2022-10-22T12:37:13;18.80;99.90
3086;DHT22;52812;48.960;9.108;2022-10-22T12:39:40;18.70;99.90
3086;DHT22;52812;48.960;9.108;2022-10-22T12:42:09;18.60;99.90
3086;DHT22;52812;48.960;9.108;2022-10-22T12:44:37;18.50;99.90
3086;DHT22;52812;48.960;9.108;2022-10-22T12:47:02;18.40;99.90
3086;DHT22;52812;48.960;9.108;2022-10-22T12:49:35;18.50;99.90
3086;DHT22;52812;48.960;9.108;2022-10-22T12:52:05;18.50;99.90
3086;DHT22;52812;48.960;9.108;2022-10-22T12:54:32;18.50;99.90
3086;DHT22;52812;48.960;9.108;2022-10-22T12:56:59;18.50;99.90
3086;DHT22;52812;48.960;9.108;2022-10-22T12:59:32;18.40;99.90
3086;DHT22;52812;48.960;9.108;2022-10-22T13:01:59;18.30;99.90
3086;DHT22;52812;48.960;9.108;2022-10-22T13:04:35;18.40;99.90
3086;DHT22;52812;48.960;9.108;2022-10-22T13:12:24;18.60;99.90
3086;DHT22;52812;48.960;9.108;2022-10-22T13:14:50;18.70;99.90
3086;DHT22;52812;48.960;9.108;2022-10-22T13:17:37;18.70;99.90
3086;DHT22;52812;48.960;9.108;2022-10-22T13:20:25;18.70;99.90
3086;DHT22;52812;48.960;9.108;2022-10-22T13:22:58;18.80;99.90
3086;DHT22;52812;48.960;9.108;2022-10-22T13:25:31;18.70;99.90
3086;DHT22;52812;48.960;9.108;2022-10-22T13:30:37;18.60;99.90
3086;DHT22;52812;48.960;9.108;2022-10-22T13:33:23;18.50;99.90
3086;DHT22;52812;48.960;9.108;2022-10-22T13:35:51;18.40;99.90
3086;DHT22;52812;48.960;9.108;2022-10-22T13:38:22;18.50;99.90
3086;DHT22;52812;48.960;9.108;2022-10-22T13:40:48;18.50;99.90
3086;DHT22;52812;48.960;9.108;2022-10-22T13:43:14;18.50;99.90
3086;DHT22;52812;48.960;9.108;2022-10-22T13:45:40;18.50;99.90
3086;DHT22;52812;48.960;9.108;2022-10-22T13:48:12;18.50;99.90
3086;DHT22;52812;48.960;9.108;2022-10-22T13:50:39;18.40;99.90
3086;DHT22;52812;48.960;9.108;2022-10-22T13:53:04;18.50;99.90
3086;DHT22;52812;48.960;9.108;2022-10-22T13:55:30;18.40;99.90
3086;DHT22;52812;48.960;9.108;2022-10-22T13:57:59;18.40;99.90
3086;DHT22;52812;48.960;9.108;2022-10-22T14:00:26;18.40;99.90
3086;DHT22;52812;48.960;9.108;2022-10-22T14:02:53;18.30;99.90
3086;DHT22;52812;48.960;9.108;2022-10-22T14:05:21;18.30;99.90
3086;DHT22;52812;48.960;9.108;2022-10-22T14:07:47;18.20;99.90
3086;DHT22;52812;48.960;9.108;2022-10-22T14:12:41;18.10;99.90
3086;DHT22;52812;48.960;9.108;2022-10-22T14:15:10;18.00;99.90
3086;DHT22;52812;48.960;9.108;2022-10-22T14:17:36;18.00;99.90
3086;DHT22;52812;48.960;9.108;2022-10-22T14:20:02;18.00;99.90
3086;DHT22;52812;48.960;9.108;2022-10-22T14:22:28;18.00;99.90
3086;DHT22;52812;48.960;9.108;2022-10-22T14:24:54;17.90;99.90
3086;DHT22;52812;48.960;9.108;2022-10-22T14:27:20;17.90;99.90
3086;DHT22;52812;48.960;9.108;2022-10-22T14:29:45;17.90;99.90
3086;DHT22;52812;48.960;9.108;2022-10-22T14:32:16;17.90;99.90
3086;DHT22;52812;48.960;9.108;2022-10-22T14:34:44;17.80;99.90
3086;DHT22;52812;48.960;9.108;2022-10-22T14:37:19;17.80;99.90
3086;DHT22;52812;48.960;9.108;2022-10-22T14:39:46;17.80;99.90
3086;DHT22;52812;48.960;9.108;2022-10-22T14:42:19;17.70;99.90
3086;DHT22;52812;48.960;9.108;2022-10-22T14:44:45;17.70;99.90
3086;DHT22;52812;48.960;9.108;2022-10-22T14:47:11;17.70;99.90
3086;DHT22;52812;48.960;9.108;2022-10-22T14:49:36;17.70;99.90
3086;DHT22;52812;48.960;9.108;2022-10-22T14:52:02;17.60;99.90
3086;DHT22;52812;48.960;9.108;2022-10-22T14:54:27;17.50;99.90
3086;DHT22;52812;48.960;9.108;2022-10-22T14:56:53;17.50;99.90
3086;DHT22;52812;48.960;9.108;2022-10-22T14:59:18;17.50;99.90
3086;DHT22;52812;48.960;9.108;2022-10-22T15:01:44;17.40;99.90
3086;DHT22;52812;48.960;9.108;2022-10-22T15:04:09;17.30;99.90
3086;DHT22;52812;48.960;9.108;2022-10-22T15:06:35;17.30;99.90
3086;DHT22;52812;48.960;9.108;2022-10-22T15:09:01;17.30;99.90
3086;DHT22;52812;48.960;9.108;2022-10-22T15:11:26;17.20;99.90
3086;DHT22;52812;48.960;9.108;2022-10-22T15:13:52;17.20;99.90
3086;DHT22;52812;48.960;9.108;2022-10-22T15:16:18;17.20;99.90
3086;DHT22;52812;48.960;9.108;2022-10-22T15:18:43;17.20;99.90
3086;DHT22;52812;48.960;9.108;2022-10-22T15:21:15;17.20;99.90
3086;DHT22;52812;48.960;9.108;2022-10-22T15:23:41;17.20;99.90
3086;DHT22;52812;48.960;9.108;2022-10-22T15:26:08;17.20;99.90
3086;DHT22;52812;48.960;9.108;2022-10-22T15:28:35;17.10;99.90
3086;DHT22;52812;48.960;9.108;2022-10-22T15:31:01;17.10;99.90
3086;DHT22;52812;48.960;9.108;2022-10-22T15:33:27;17.00;99.90
3086;DHT22;52812;48.960;9.108;2022-10-22T15:35:53;17.00;99.90
3086;DHT22;52812;48.960;9.108;2022-10-22T15:38:19;16.90;99.90
3086;DHT22;52812;48.960;9.108;2022-10-22T15:40:45;16.90;99.90
3086;DHT22;52812;48.960;9.108;2022-10-22T15:43:11;16.80;99.90
3086;DHT22;52812;48.960;9.108;2022-10-22T15:45:37;16.70;99.90
3086;DHT22;52812;48.960;9.108;2022-10-22T15:48:03;16.70;99.90
3086;DHT22;52812;48.960;9.108;2022-10-22T15:50:29;16.70;99.90
3086;DHT22;52812;48.960;9.108;2022-10-22T15:52:55;16.60;99.90
3086;DHT22;52812;48.960;9.108;2022-10-22T15:55:20;16.50;99.90
3086;DHT22;52812;48.960;9.108;2022-10-22T15:57:46;16.40;99.90
3086;DHT22;52812;48.960;9.108;2022-10-22T16:00:13;16.50;99.90
3086;DHT22;52812;48.960;9.108;2022-10-22T16:02:39;16.50;99.90
3086;DHT22;52812;48.960;9.108;2022-10-22T16:05:05;16.60;99.90
3086;DHT22;52812;48.960;9.108;2022-10-22T16:07:30;16.60;99.90
3086;DHT22;52812;48.960;9.108;2022-10-22T16:09:59;16.60;99.90
3086;DHT22;52812;48.960;9.108;2022-10-22T16:12:26;16.50;99.90
3086;DHT22;52812;48.960;9.108;2022-10-22T16:14:51;16.60;99.90
3086;DHT22;52812;48.960;9.108;2022-10-22T16:17:17;16.50;99.90
3086;DHT22;52812;48.960;9.108;2022-10-22T16:19:43;16.30;99.90
3086;DHT22;52812;48.960;9.108;2022-10-22T16:22:09;16.20;99.90
3086;DHT22;52812;48.960;9.108;2022-10-22T16:24:36;16.00;99.90
3086;DHT22;52812;48.960;9.108;2022-10-22T16:27:05;15.90;99.90
3086;DHT22;52812;48.960;9.108;2022-10-22T16:29:30;15.70;99.90
3086;DHT22;52812;48.960;9.108;2022-10-22T16:31:56;15.60;99.90
3086;DHT22;52812;48.960;9.108;2022-10-22T16:34:21;15.50;99.90
3086;DHT22;52812;48.960;9.108;2022-10-22T16:36:47;15.40;99.90
3086;DHT22;52812;48.960;9.108;2022-10-22T16:39:13;15.30;99.90
3086;DHT22;52812;48.960;9.108;2022-10-22T16:41:38;15.00;99.90
3086;DHT22;52812;48.960;9.108;2022-10-22T16:44:06;14.80;99.90
3086;DHT22;52812;48.960;9.108;2022-10-22T16:46:33;14.70;99.90
3086;DHT22;52812;48.960;9.108;2022-10-22T16:49:00;14.60;99.90
3086;DHT22;52812;48.960;9.108;2022-10-22T16:51:27;14.50;99.90
3086;DHT22;52812;48.960;9.108;2022-10-22T16:53:54;14.50;99.90
3086;DHT22;52812;48.960;9.108;2022-10-22T16:56:19;14.30;99.90
3086;DHT22;52812;48.960;9.108;2022-10-22T16:58:47;14.30;99.90
3086;DHT22;52812;48.960;9.108;2022-10-22T17:01:14;14.10;99.90
3086;DHT22;52812;48.960;9.108;2022-10-22T17:03:40;14.10;99.90
3086;DHT22;52812;48.960;9.108;2022-10-22T17:06:06;14.20;99.90
3086;DHT22;52812;48.960;9.108;2022-10-22T17:08:36;14.10;99.90
3086;DHT22;52812;48.960;9.108;2022-10-22T17:11:12;14.10;99.90
3086;DHT22;52812;48.960;9.108;2022-10-22T17:13:41;14.00;99.90
3086;DHT22;52812;48.960;9.108;2022-10-22T17:16:10;13.90;99.90
3086;DHT22;52812;48.960;9.108;2022-10-22T17:18:38;13.90;99.90
3086;DHT22;52812;48.960;9.108;2022-10-22T17:21:05;13.80;99.90
3086;DHT22;52812;48.960;9.108;2022-10-22T17:23:31;13.90;99.90
3086;DHT22;52812;48.960;9.108;2022-10-22T17:25:58;13.80;99.90